createdAt,value
2018-12-03T00:01:07.217Z,77.57
2018-12-03T00:06:01.801Z,75.27
2018-12-03T00:10:56.377Z,70.13
2018-12-03T00:15:50.910Z,71.20
2018-12-03T00:20:45.701Z,68.67
2018-12-03T00:25:40.256Z,74.73
2018-12-03T00:30:34.804Z,71.93
2018-12-03T00:35:29.352Z,67.97
2018-12-03T00:40:23.888Z,67.17
2018-12-03T00:45:18.417Z,66.53
2018-12-03T00:50:12.956Z,68.13
2018-12-03T00:55:08.296Z,68.43
2018-12-03T01:00:02.982Z,68.33
2018-12-03T01:04:57.603Z,68.53
2018-12-03T01:09:52.239Z,72.90
2018-12-03T01:14:46.845Z,74.57
2018-12-03T01:19:41.397Z,67.70
2018-12-03T01:24:35.965Z,67.90
2018-12-03T01:29:30.465Z,61.90
2018-12-03T01:34:25.091Z,63.57
2018-12-03T01:39:19.632Z,61.63
2018-12-03T01:44:14.166Z,60.03
2018-12-03T01:49:08.737Z,61.67
2018-12-03T01:54:03.289Z,62.53
2018-12-03T01:58:57.845Z,66.47
2018-12-03T02:03:52.377Z,65.73
2018-12-03T02:08:46.922Z,64.23
2018-12-03T02:13:41.449Z,62.60
2018-12-03T02:18:36.056Z,65.37
2018-12-03T02:23:30.577Z,64.50
2018-12-03T02:28:25.264Z,63.47
2018-12-03T02:33:19.805Z,56.20
2018-12-03T02:38:14.410Z,59.53
2018-12-03T02:43:08.949Z,60.80
2018-12-03T02:48:03.477Z,62.43
2018-12-03T02:52:58.029Z,57.57
2018-12-03T02:57:52.569Z,62.93
2018-12-03T03:02:47.126Z,66.13
2018-12-03T03:07:41.752Z,62.73
2018-12-03T03:12:36.297Z,67.77
2018-12-03T03:17:30.817Z,64.13
2018-12-03T03:22:25.522Z,56.83
2018-12-03T03:27:20.024Z,57.40
2018-12-03T03:32:14.573Z,58.67
2018-12-03T03:37:09.092Z,57.90
2018-12-03T03:42:03.731Z,60.93
2018-12-03T03:46:58.269Z,58.97
2018-12-03T03:51:52.812Z,57.33
2018-12-03T03:56:47.318Z,53.50
2018-12-03T04:01:41.970Z,56.17
2018-12-03T04:06:36.584Z,55.00
2018-12-03T04:11:31.130Z,52.37
2018-12-03T04:16:25.672Z,53.67
2018-12-03T04:21:20.213Z,56.00
2018-12-03T04:26:14.949Z,52.17
2018-12-03T04:31:09.721Z,56.67
2018-12-03T04:36:04.288Z,56.50
2018-12-03T04:41:05.242Z,53.40
2018-12-03T04:45:59.779Z,57.00
2018-12-03T04:50:54.305Z,53.83
2018-12-03T04:55:48.837Z,50.03
2018-12-03T05:00:43.348Z,54.60
2018-12-03T05:05:37.875Z,51.17
2018-12-03T05:10:32.424Z,51.13
2018-12-03T05:15:27.029Z,54.73
2018-12-03T05:20:22.947Z,51.93
2018-12-03T05:25:19.458Z,52.77
2018-12-03T05:30:14.132Z,50.50
2018-12-03T05:35:12.860Z,44.03
2018-12-03T05:40:10.811Z,47.47
2018-12-03T05:45:06.148Z,51.80
2018-12-03T05:50:00.693Z,49.37
2018-12-03T05:54:55.249Z,42.97
2018-12-03T05:59:49.781Z,44.37
2018-12-03T06:04:44.365Z,40.40
2018-12-03T06:09:39.136Z,43.77
2018-12-03T06:14:33.740Z,42.03
2018-12-03T06:19:28.448Z,48.07
2018-12-03T06:24:23.496Z,40.87
2018-12-03T06:29:18.152Z,47.23
2018-12-03T06:34:13.665Z,44.67
2018-12-03T06:39:10.021Z,46.00
2018-12-03T06:44:04.787Z,48.47
2018-12-03T06:48:59.391Z,54.37
2018-12-03T06:53:54.027Z,47.77
2018-12-03T06:58:48.645Z,54.40
2018-12-03T07:03:43.243Z,62.50
2018-12-03T07:08:37.849Z,104.10
2018-12-03T07:13:32.482Z,69.33
2018-12-03T07:18:27.407Z,50.70
2018-12-03T07:23:22.077Z,46.73
2018-12-03T07:28:16.713Z,46.57
2018-12-03T07:33:11.378Z,47.37
2018-12-03T07:38:06.153Z,50.93
2018-12-03T07:43:00.817Z,47.10
2018-12-03T07:47:55.474Z,47.03
2018-12-03T07:52:50.150Z,51.93
2018-12-03T07:57:48.363Z,45.63
2018-12-03T08:02:43.011Z,42.70
2018-12-03T08:07:37.642Z,44.33
2018-12-03T08:12:32.303Z,48.97
2018-12-03T08:17:27.489Z,45.13
2018-12-03T08:22:22.130Z,44.37
2018-12-03T08:27:16.765Z,40.37
2018-12-03T08:32:11.364Z,43.63
2018-12-03T08:37:06.135Z,46.27
2018-12-03T08:42:00.779Z,40.70
2018-12-03T08:46:55.369Z,41.33
2018-12-03T08:51:49.988Z,38.90
2018-12-03T08:56:46.791Z,37.80
2018-12-03T09:01:41.368Z,35.10
2018-12-03T09:06:35.961Z,36.60
2018-12-03T09:11:30.584Z,34.70
2018-12-03T09:16:25.236Z,41.47
2018-12-03T09:21:20.025Z,34.37
2018-12-03T09:26:15.480Z,33.93
2018-12-03T09:31:10.675Z,45.43
2018-12-03T09:36:05.905Z,38.67
2018-12-03T09:41:01.347Z,40.10
2018-12-03T09:45:56.011Z,35.23
2018-12-03T09:50:50.708Z,38.77
2018-12-03T09:55:45.335Z,39.13
2018-12-03T10:00:40.038Z,39.03
2018-12-03T10:06:12.898Z,34.07
2018-12-03T10:11:07.575Z,33.63
2018-12-03T10:16:02.212Z,26.73
2018-12-03T10:20:58.457Z,22.33
2018-12-03T10:25:56.031Z,30.03
2018-12-03T10:30:51.657Z,28.37
2018-12-03T10:35:46.306Z,23.43
2018-12-03T10:40:43.015Z,19.03
2018-12-03T10:45:37.719Z,16.73
2018-12-03T10:50:32.505Z,16.67
2018-12-03T10:55:27.319Z,18.23
2018-12-03T11:00:27.139Z,14.10
2018-12-03T11:05:29.399Z,18.07
2018-12-03T11:10:26.071Z,13.40
2018-12-03T11:15:21.877Z,14.70
2018-12-03T11:20:16.531Z,13.63
2018-12-03T11:25:13.661Z,15.07
2018-12-03T11:30:11.203Z,20.40
2018-12-03T11:35:08.300Z,13.90
2018-12-03T11:40:24.801Z,13.30
2018-12-03T11:45:19.463Z,12.23
2018-12-03T11:50:14.279Z,9.37
2018-12-03T11:55:09.554Z,9.47
2018-12-03T12:00:04.826Z,9.50
2018-12-03T12:04:59.467Z,9.67
2018-12-03T12:09:54.094Z,9.67
2018-12-03T12:14:50.771Z,7.50
2018-12-03T12:19:45.410Z,11.80
2018-12-03T12:24:40.039Z,12.67
2018-12-03T12:29:34.792Z,16.47
2018-12-03T12:34:29.498Z,9.53
2018-12-03T12:39:24.119Z,8.93
2018-12-03T12:44:18.772Z,6.40
2018-12-03T12:49:14.626Z,6.23
2018-12-03T12:54:09.302Z,7.03
2018-12-03T12:59:04.353Z,6.67
2018-12-03T13:03:59.025Z,7.27
2018-12-03T13:08:53.686Z,7.07
2018-12-03T13:13:48.355Z,8.20
2018-12-03T13:18:42.986Z,6.60
2018-12-03T13:23:38.176Z,8.53
2018-12-03T13:28:33.738Z,7.63
2018-12-03T13:33:28.806Z,6.50
2018-12-03T13:38:23.438Z,5.90
2018-12-03T13:43:18.285Z,6.00
2018-12-03T13:48:12.925Z,5.70
2018-12-03T13:53:08.275Z,7.87
2018-12-03T13:58:03.634Z,10.77
2018-12-03T14:03:02.493Z,14.73
2018-12-03T14:09:02.310Z,12.00
2018-12-03T14:14:12.365Z,12.00
2018-12-03T14:19:12.655Z,10.60
2018-12-03T14:24:17.257Z,9.13
2018-12-03T14:29:11.837Z,8.30
2018-12-03T14:34:06.526Z,10.77
2018-12-03T14:39:01.143Z,12.20
2018-12-03T14:43:55.810Z,11.33
2018-12-03T14:48:50.454Z,13.43
2018-12-03T14:53:45.088Z,10.80
2018-12-03T14:58:39.717Z,9.57
2018-12-03T15:03:34.355Z,12.67
2018-12-03T15:08:28.978Z,17.50
2018-12-03T15:13:23.632Z,13.60
2018-12-03T15:18:18.394Z,14.50
2018-12-03T15:23:13.047Z,15.50
2018-12-03T15:28:07.716Z,14.37
2018-12-03T15:33:02.361Z,18.20
2018-12-03T15:37:57.063Z,21.37
2018-12-03T15:42:51.691Z,16.80
2018-12-03T15:47:46.326Z,116.90
2018-12-03T15:52:41.004Z,22.27
2018-12-03T15:57:35.634Z,24.17
2018-12-03T16:02:30.403Z,24.70
2018-12-03T16:07:25.037Z,28.33
2018-12-03T16:12:19.714Z,35.60
2018-12-03T16:17:14.443Z,24.80
2018-12-03T16:22:09.133Z,20.37
2018-12-03T16:27:03.801Z,24.13
2018-12-03T16:31:58.593Z,26.27
2018-12-03T16:36:53.898Z,25.73
2018-12-03T16:41:48.679Z,20.63
2018-12-03T16:46:43.479Z,26.97
2018-12-03T16:51:38.520Z,23.40
2018-12-03T16:56:33.149Z,24.47
2018-12-03T17:01:27.860Z,28.67
2018-12-03T17:06:22.513Z,32.43
2018-12-03T17:11:17.155Z,29.77
2018-12-03T17:16:11.847Z,35.53
2018-12-03T17:21:17.034Z,46.53
2018-12-03T17:26:11.745Z,35.97
2018-12-03T17:31:06.418Z,39.60
2018-12-03T17:36:01.206Z,39.57
2018-12-03T17:40:55.902Z,35.60
2018-12-03T17:45:50.626Z,62.50
2018-12-03T17:50:45.467Z,54.60
2018-12-03T17:55:40.144Z,35.37
2018-12-03T18:00:37.034Z,49.47
2018-12-03T18:05:31.776Z,33.33
2018-12-03T18:10:26.475Z,27.03
2018-12-03T18:15:21.151Z,54.43
2018-12-03T18:20:15.832Z,145.97
2018-12-03T18:25:10.519Z,96.93
2018-12-03T18:30:07.463Z,49.77
2018-12-03T18:35:02.553Z,39.07
2018-12-03T18:39:57.932Z,66.27
2018-12-03T18:44:52.718Z,70.30
2018-12-03T18:49:49.351Z,60.37
2018-12-03T18:54:44.231Z,52.90
2018-12-03T18:59:39.106Z,38.50
2018-12-03T19:04:33.847Z,45.57
2018-12-03T19:09:28.546Z,59.07
2018-12-03T19:14:23.456Z,44.77
2018-12-03T19:19:18.630Z,39.87
2018-12-03T19:24:13.520Z,43.60
2018-12-03T19:29:09.442Z,54.43
2018-12-03T19:34:08.891Z,53.50
2018-12-03T19:39:09.130Z,49.70
2018-12-03T19:44:09.673Z,43.00
2018-12-03T19:49:09.203Z,55.63
2018-12-03T19:54:08.927Z,48.37
2018-12-03T19:59:09.353Z,44.90
2018-12-03T20:04:52.720Z,45.87
2018-12-03T20:09:48.228Z,47.07
2018-12-03T20:14:42.938Z,47.00
2018-12-03T20:19:37.900Z,58.53
2018-12-03T20:24:32.740Z,59.27
2018-12-03T20:29:33.273Z,45.90
2018-12-03T20:34:45.304Z,49.37
2018-12-03T20:40:53.598Z,43.03
2018-12-03T20:48:08.633Z,45.60
2018-12-03T20:53:03.340Z,37.00
2018-12-03T20:57:57.950Z,43.00
2018-12-03T21:02:56.210Z,44.90
2018-12-03T21:07:50.876Z,44.07
2018-12-03T21:12:46.384Z,61.37
2018-12-03T21:17:42.907Z,63.17
2018-12-03T21:22:38.026Z,50.73
2018-12-03T21:27:32.719Z,57.47
2018-12-03T21:32:27.422Z,149.17
2018-12-03T21:37:26.009Z,153.90
2018-12-03T21:42:21.595Z,82.33
2018-12-03T21:47:16.512Z,45.80
2018-12-03T21:52:11.148Z,44.33
2018-12-03T21:57:10.744Z,54.13
2018-12-03T22:02:02.627Z,46.70
2018-12-03T22:06:57.290Z,42.70
2018-12-03T22:11:51.917Z,44.17
2018-12-03T22:16:46.528Z,82.87
2018-12-03T22:21:41.159Z,49.00
2018-12-03T22:26:35.777Z,72.33
2018-12-03T22:31:30.394Z,83.37
2018-12-03T22:36:25.037Z,65.97
2018-12-03T22:41:19.686Z,56.53
2018-12-03T22:46:14.324Z,68.13
2018-12-03T22:51:09.996Z,54.70
2018-12-03T22:56:04.648Z,48.00
2018-12-03T23:01:06.980Z,43.00
2018-12-03T23:06:01.617Z,37.67
2018-12-03T23:10:56.382Z,40.13
2018-12-03T23:15:50.966Z,34.83
2018-12-03T23:20:45.658Z,45.93
2018-12-03T23:25:40.267Z,38.67
2018-12-03T23:30:34.886Z,41.50
2018-12-03T23:35:29.586Z,36.40
2018-12-03T23:40:24.187Z,35.87
2018-12-03T23:45:18.810Z,41.47
2018-12-03T23:50:13.566Z,40.63
2018-12-03T23:55:08.213Z,37.70
